Time;durP1;ratioP1;P1;durP2;ratioP2;P2;SDS_P1;SDS_P2;PMS_P1;PMS_P2;Temp;Humidity;BMP_temperature;BMP_pressure;BME280_temperature;BME280_humidity;BME280_pressure;Samples;Min_cycle;Max_cycle;Signal;HPM_P1;HPM_P2
2021/06/17 00:01:10;;;;;;;2.28;2.10;;;;;;;;;;4998427;28;20022;-80
2021/06/17 00:03:36;;;;;;;2.35;2.03;;;;;;;;;;4999444;28;20384;-80
2021/06/17 00:06:02;;;;;;;2.47;2.00;;;;;;;;;;5000514;28;20026;-81
2021/06/17 00:08:28;;;;;;;3.42;2.10;;;;;;;;;;4999430;28;20121;-80
2021/06/17 00:10:55;;;;;;;2.17;1.95;;;;;;;;;;4999468;28;20065;-80
2021/06/17 00:13:26;;;;;;;2.08;1.83;;;;;;;;;;4999710;28;20400;-80
2021/06/17 00:15:54;;;;;;;1.60;1.50;;;;;;;;;;4998316;28;20149;-81
2021/06/17 00:18:20;;;;;;;1.77;1.67;;;;;;;;;;4999026;28;20317;-81
2021/06/17 00:20:47;;;;;;;1.83;1.73;;;;;;;;;;4998393;28;20058;-81
2021/06/17 00:23:14;;;;;;;1.92;1.70;;;;;;;;;;4998827;28;20034;-81
2021/06/17 00:25:41;;;;;;;3.17;1.77;;;;;;;;;;4999693;28;20030;-81
2021/06/17 00:28:07;;;;;;;2.15;1.95;;;;;;;;;;5003311;28;20041;-81
2021/06/17 00:30:33;;;;;;;1.80;1.70;;;;;;;;;;4996419;28;20121;-80
2021/06/17 00:32:59;;;;;;;2.20;2.00;;;;;;;;;;4996608;28;20078;-81
2021/06/17 00:35:28;;;;;;;2.00;1.90;;;;;;;;;;4995947;28;20025;-81
2021/06/17 00:37:54;;;;;;;2.17;2.00;;;;;;;;;;4996504;28;20036;-81
2021/06/17 00:40:21;;;;;;;1.70;1.58;;;;;;;;;;4998600;28;20030;-81
2021/06/17 00:42:48;;;;;;;1.95;1.77;;;;;;;;;;4998887;28;20031;-80
2021/06/17 00:45:15;;;;;;;2.00;1.75;;;;;;;;;;4998499;28;20456;-80
2021/06/17 00:47:41;;;;;;;2.47;2.20;;;;;;;;;;4998609;28;20026;-81
2021/06/17 00:50:08;;;;;;;2.33;2.13;;;;;;;;;;4998523;28;20034;-80
2021/06/17 00:52:34;;;;;;;3.45;2.50;;;;;;;;;;4999097;28;20026;-80
2021/06/17 00:55:00;;;;;;;2.63;2.22;;;;;;;;;;4998844;28;20031;-81
2021/06/17 00:57:26;;;;;;;3.60;2.88;;;;;;;;;;5006947;28;20015;-81
2021/06/17 00:59:53;;;;;;;2.08;1.88;;;;;;;;;;5013747;28;20491;-81
2021/06/17 01:02:19;;;;;;;2.28;2.08;;;;;;;;;;5012316;28;20034;-80
2021/06/17 01:04:45;;;;;;;2.00;1.90;;;;;;;;;;4997465;28;20117;-81
2021/06/17 01:07:13;;;;;;;2.42;2.00;;;;;;;;;;4998681;28;20410;-80
2021/06/17 01:09:48;;;;;;;1.85;1.73;;;;;;;;;;4998010;28;20431;-81
2021/06/17 01:12:33;;;;;;;1.83;1.73;;;;;;;;;;4999172;28;20391;-81
2021/06/17 01:15:03;;;;;;;2.03;1.92;;;;;;;;;;4999381;28;20090;-81
2021/06/17 01:17:30;;;;;;;2.42;2.17;;;;;;;;;;4998362;28;20491;-81
2021/06/17 01:20:05;;;;;;;2.08;1.88;;;;;;;;;;4997356;28;20034;-80
2021/06/17 01:22:31;;;;;;;2.50;2.28;;;;;;;;;;4998676;28;20037;-81
2021/06/17 01:24:57;;;;;;;2.50;2.20;;;;;;;;;;4997309;28;20031;-81
2021/06/17 01:27:38;;;;;;;2.30;2.10;;;;;;;;;;5006395;28;20030;-81
2021/06/17 01:30:15;;;;;;;7.43;3.03;;;;;;;;;;5003630;28;20030;-80
2021/06/17 01:32:45;;;;;;;3.10;2.30;;;;;;;;;;4999479;28;20026;-81
2021/06/17 01:35:12;;;;;;;2.90;2.70;;;;;;;;;;5000455;28;20026;-81
2021/06/17 01:37:39;;;;;;;2.80;2.60;;;;;;;;;;5001964;28;20037;-81
2021/06/17 01:40:06;;;;;;;3.33;2.88;;;;;;;;;;5002093;28;20341;-81
2021/06/17 01:42:33;;;;;;;3.10;2.67;;;;;;;;;;5002192;28;20037;-79
2021/06/17 01:45:00;;;;;;;4.30;3.42;;;;;;;;;;5001982;28;20034;-81
2021/06/17 01:47:27;;;;;;;4.15;3.13;;;;;;;;;;5002188;28;20502;-80
2021/06/17 01:49:53;;;;;;;3.15;2.85;;;;;;;;;;5000937;28;20054;-80
2021/06/17 01:52:21;;;;;;;3.10;2.67;;;;;;;;;;5001479;28;20033;-81
2021/06/17 01:54:49;;;;;;;2.95;2.47;;;;;;;;;;5001793;28;20026;-81
2021/06/17 01:57:16;;;;;;;3.22;2.80;;;;;;;;;;5008740;28;20498;-80
2021/06/17 01:59:44;;;;;;;2.20;2.10;;;;;;;;;;5011661;28;20026;-80
2021/06/17 02:02:10;;;;;;;2.70;2.50;;;;;;;;;;5018250;28;20018;-78
2021/06/17 02:04:36;;;;;;;2.25;2.10;;;;;;;;;;5018691;28;20042;-78
2021/06/17 02:07:03;;;;;;;2.42;2.25;;;;;;;;;;5019293;28;20033;-79
2021/06/17 02:09:30;;;;;;;2.42;2.22;;;;;;;;;;5019788;28;20038;-77
2021/06/17 02:11:56;;;;;;;3.50;2.90;;;;;;;;;;5019381;28;20049;-77
2021/06/17 02:14:24;;;;;;;3.08;2.83;;;;;;;;;;5011732;28;20085;-81
2021/06/17 02:16:51;;;;;;;2.38;2.17;;;;;;;;;;5007479;28;20033;-80
2021/06/17 02:19:19;;;;;;;3.00;2.33;;;;;;;;;;4999671;28;20030;-80
2021/06/17 02:21:46;;;;;;;2.33;2.13;;;;;;;;;;5000373;28;20031;-80
2021/06/17 02:24:12;;;;;;;2.50;2.30;;;;;;;;;;5000263;28;20050;-80
2021/06/17 02:26:40;;;;;;;2.28;2.13;;;;;;;;;;5003854;28;20034;-81
2021/06/17 02:29:08;;;;;;;1.83;1.73;;;;;;;;;;5006896;28;20019;-80
2021/06/17 02:31:35;;;;;;;2.90;2.15;;;;;;;;;;4983359;28;20141;-80
2021/06/17 02:34:01;;;;;;;2.50;2.03;;;;;;;;;;5008490;28;20553;-80
2021/06/17 02:36:28;;;;;;;2.20;2.00;;;;;;;;;;5008998;28;20034;-79
2021/06/17 02:38:59;;;;;;;2.58;1.95;;;;;;;;;;5008163;28;20034;-79
2021/06/17 02:41:26;;;;;;;2.03;1.83;;;;;;;;;;5003602;28;20030;-80
2021/06/17 02:43:59;;;;;;;2.50;2.30;;;;;;;;;;5000593;28;20129;-79
2021/06/17 02:46:25;;;;;;;2.08;1.88;;;;;;;;;;5001688;28;20030;-80
2021/06/17 02:48:52;;;;;;;2.72;2.08;;;;;;;;;;5000776;28;20064;-80
2021/06/17 02:51:18;;;;;;;2.70;2.50;;;;;;;;;;5001660;28;20074;-79
2021/06/17 02:53:44;;;;;;;2.03;1.92;;;;;;;;;;5000829;28;20030;-79
2021/06/17 02:56:12;;;;;;;4.18;3.40;;;;;;;;;;5001729;28;20117;-78
2021/06/17 02:58:38;;;;;;;4.32;2.80;;;;;;;;;;5012088;28;20053;-80
2021/06/17 03:01:11;;;;;;;3.50;3.10;;;;;;;;;;4999573;28;20522;-80
2021/06/17 03:03:40;;;;;;;3.22;2.75;;;;;;;;;;4998953;28;20050;-79
2021/06/17 03:06:13;;;;;;;3.63;3.33;;;;;;;;;;5000267;28;20023;-80
2021/06/17 03:08:41;;;;;;;3.72;3.33;;;;;;;;;;4999823;28;20022;-79
2021/06/17 03:11:10;;;;;;;3.17;2.92;;;;;;;;;;4998959;28;20033;-80
2021/06/17 03:13:37;;;;;;;3.20;2.90;;;;;;;;;;4998478;28;20034;-81
2021/06/17 03:16:04;;;;;;;2.63;2.42;;;;;;;;;;4997023;28;20026;-81
2021/06/17 03:18:32;;;;;;;3.78;2.90;;;;;;;;;;4997882;28;20047;-81
2021/06/17 03:20:59;;;;;;;2.80;2.60;;;;;;;;;;4999588;28;20050;-81
2021/06/17 03:23:26;;;;;;;2.78;2.33;;;;;;;;;;5000536;28;20088;-83
2021/06/17 03:25:54;;;;;;;2.67;2.47;;;;;;;;;;4983305;28;20029;-82
2021/06/17 03:28:21;;;;;;;2.50;2.30;;;;;;;;;;5008185;28;20029;-79
2021/06/17 03:30:48;;;;;;;2.50;2.30;;;;;;;;;;4999555;28;20459;-79
2021/06/17 03:33:15;;;;;;;2.50;2.30;;;;;;;;;;5000513;28;20034;-79
2021/06/17 03:35:41;;;;;;;2.85;2.60;;;;;;;;;;5000833;28;20022;-79
2021/06/17 03:38:10;;;;;;;2.28;2.08;;;;;;;;;;4999437;28;20026;-79
2021/06/17 03:40:36;;;;;;;2.65;2.45;;;;;;;;;;5001088;28;20081;-79
2021/06/17 03:43:03;;;;;;;2.97;2.78;;;;;;;;;;5001236;28;20085;-79
2021/06/17 03:45:29;;;;;;;4.80;2.97;;;;;;;;;;5000622;28;20125;-79
2021/06/17 03:47:55;;;;;;;4.22;2.58;;;;;;;;;;4999203;28;20034;-79
2021/06/17 03:50:24;;;;;;;2.78;2.58;;;;;;;;;;4999811;28;20034;-79
2021/06/17 03:52:50;;;;;;;4.25;2.60;;;;;;;;;;5000114;28;20018;-80
2021/06/17 03:55:17;;;;;;;2.42;2.13;;;;;;;;;;4996477;28;20026;-77
2021/06/17 03:57:45;;;;;;;2.92;2.65;;;;;;;;;;4998877;28;20104;-77
2021/06/17 04:00:12;;;;;;;4.43;2.60;;;;;;;;;;4978653;28;20038;-76
2021/06/17 04:02:38;;;;;;;3.22;2.30;;;;;;;;;;4993803;28;20038;-76
2021/06/17 04:05:04;;;;;;;2.88;2.63;;;;;;;;;;4992813;28;20030;-76
2021/06/17 04:07:31;;;;;;;2.65;2.45;;;;;;;;;;4993695;28;20049;-76
2021/06/17 04:10:00;;;;;;;2.00;1.90;;;;;;;;;;4975228;28;20026;-76
2021/06/17 04:12:28;;;;;;;2.92;2.53;;;;;;;;;;4975251;28;20070;-76
2021/06/17 04:14:58;;;;;;;2.80;2.25;;;;;;;;;;4992057;28;20030;-76
2021/06/17 04:17:26;;;;;;;2.10;2.00;;;;;;;;;;4994043;28;20026;-76
2021/06/17 04:19:53;;;;;;;2.25;2.05;;;;;;;;;;4994505;28;20030;-76
2021/06/17 04:22:20;;;;;;;2.85;2.60;;;;;;;;;;4994717;28;20031;-76
2021/06/17 04:24:48;;;;;;;3.08;2.78;;;;;;;;;;4994286;28;20507;-76
2021/06/17 04:27:14;;;;;;;4.25;3.03;;;;;;;;;;4993813;28;20069;-76
2021/06/17 04:29:40;;;;;;;4.03;3.03;;;;;;;;;;5000853;28;20035;-77
2021/06/17 04:32:07;;;;;;;3.20;2.80;;;;;;;;;;4992929;28;20038;-77
2021/06/17 04:34:34;;;;;;;3.30;2.97;;;;;;;;;;4994208;28;20069;-76
2021/06/17 04:37:02;;;;;;;5.43;2.78;;;;;;;;;;4994028;28;20030;-77
2021/06/17 04:39:28;;;;;;;3.97;2.70;;;;;;;;;;4994474;28;20085;-76
2021/06/17 04:41:54;;;;;;;2.88;2.58;;;;;;;;;;4993296;28;20042;-77
2021/06/17 04:44:23;;;;;;;3.40;3.10;;;;;;;;;;4994771;28;20030;-79
2021/06/17 04:46:50;;;;;;;2.80;2.50;;;;;;;;;;4995488;28;20061;-80
2021/06/17 04:49:17;;;;;;;4.00;3.08;;;;;;;;;;4997175;28;20121;-79
2021/06/17 04:51:43;;;;;;;3.58;2.97;;;;;;;;;;4996577;28;20050;-79
2021/06/17 04:54:18;;;;;;;3.80;3.15;;;;;;;;;;4995883;28;20077;-79
2021/06/17 04:56:48;;;;;;;3.92;2.88;;;;;;;;;;5001579;28;20062;-79
2021/06/17 04:59:17;;;;;;;3.65;3.10;;;;;;;;;;4999569;28;20029;-79
2021/06/17 05:01:43;;;;;;;3.25;2.67;;;;;;;;;;4994508;28;20442;-79
2021/06/17 05:04:09;;;;;;;3.45;3.05;;;;;;;;;;4994561;28;20045;-79
2021/06/17 05:06:38;;;;;;;2.60;2.33;;;;;;;;;;4999180;28;20109;-79
2021/06/17 05:11:52;;;;;;;2.58;2.38;;;;;;;;;;4999888;28;20114;-78
2021/06/17 05:14:21;;;;;;;2.50;2.13;;;;;;;;;;4996753;28;20030;-79
2021/06/17 05:16:47;;;;;;;3.15;2.40;;;;;;;;;;4995613;28;20069;-78
2021/06/17 05:19:15;;;;;;;2.55;2.10;;;;;;;;;;4999001;28;20030;-83
2021/06/17 05:21:42;;;;;;;2.20;2.00;;;;;;;;;;5002166;28;20026;-83
2021/06/17 05:24:08;;;;;;;2.00;1.90;;;;;;;;;;4992244;28;20495;-83
2021/06/17 05:26:35;;;;;;;2.10;1.80;;;;;;;;;;5021716;28;20113;-82
2021/06/17 05:29:01;;;;;;;2.00;1.90;;;;;;;;;;4996624;28;20305;-83
2021/06/17 05:31:27;;;;;;;2.08;1.88;;;;;;;;;;4987398;28;20136;-83
2021/06/17 05:33:53;;;;;;;2.28;2.08;;;;;;;;;;5003341;28;20030;-83
2021/06/17 05:36:20;;;;;;;2.40;2.20;;;;;;;;;;5003970;28;20499;-82
2021/06/17 05:38:48;;;;;;;2.10;2.00;;;;;;;;;;4990899;28;20188;-82
2021/06/17 05:41:14;;;;;;;2.95;2.30;;;;;;;;;;5005133;28;20022;-83
2021/06/17 05:43:40;;;;;;;2.20;2.10;;;;;;;;;;5008569;28;20031;-82
2021/06/17 05:46:06;;;;;;;2.22;2.03;;;;;;;;;;5007805;28;20384;-82
2021/06/17 05:48:32;;;;;;;2.40;2.28;;;;;;;;;;5008513;28;20030;-82
2021/06/17 05:50:58;;;;;;;1.70;1.60;;;;;;;;;;5006645;28;20027;-83
2021/06/17 05:53:24;;;;;;;4.40;2.60;;;;;;;;;;5015853;28;20731;-82
2021/06/17 05:55:51;;;;;;;3.17;2.97;;;;;;;;;;5014723;28;20153;-82
2021/06/17 05:58:17;;;;;;;2.42;2.33;;;;;;;;;;5017506;28;20065;-82
2021/06/17 06:00:43;;;;;;;3.20;2.90;;;;;;;;;;5015708;28;20030;-82
2021/06/17 06:03:09;;;;;;;2.85;2.42;;;;;;;;;;5021270;28;20045;-82
2021/06/17 06:05:36;;;;;;;2.50;2.30;;;;;;;;;;5011469;28;21426;-82
2021/06/17 06:08:03;;;;;;;2.70;2.50;;;;;;;;;;5009406;28;20051;-82
2021/06/17 06:10:30;;;;;;;2.33;2.15;;;;;;;;;;5008772;28;20034;-82
2021/06/17 06:12:57;;;;;;;2.50;2.30;;;;;;;;;;5009265;28;20046;-82
2021/06/17 06:15:23;;;;;;;2.50;2.30;;;;;;;;;;5009400;28;20061;-83
2021/06/17 06:17:49;;;;;;;3.20;2.60;;;;;;;;;;5010565;28;20029;-82
2021/06/17 06:20:16;;;;;;;2.78;2.58;;;;;;;;;;5004879;28;20053;-82
2021/06/17 06:22:43;;;;;;;2.75;2.55;;;;;;;;;;5003495;28;20064;-82
2021/06/17 06:25:09;;;;;;;2.70;2.45;;;;;;;;;;5004219;28;20030;-82
2021/06/17 06:27:35;;;;;;;2.78;2.53;;;;;;;;;;5010242;28;20030;-82
2021/06/17 06:30:03;;;;;;;2.63;2.42;;;;;;;;;;5006774;28;20062;-81
2021/06/17 06:32:30;;;;;;;2.20;2.10;;;;;;;;;;5004802;28;20030;-81
2021/06/17 06:34:58;;;;;;;2.53;2.33;;;;;;;;;;5003526;28;20168;-81
2021/06/17 06:37:24;;;;;;;2.95;2.75;;;;;;;;;;5002959;28;20026;-81
2021/06/17 06:39:50;;;;;;;4.18;2.40;;;;;;;;;;5004089;28;20030;-81
2021/06/17 06:42:16;;;;;;;4.55;3.00;;;;;;;;;;5005412;28;20431;-81
2021/06/17 06:44:42;;;;;;;3.15;2.85;;;;;;;;;;5003856;28;20014;-81
2021/06/17 06:47:08;;;;;;;3.03;2.83;;;;;;;;;;5004541;28;20091;-81
2021/06/17 06:49:34;;;;;;;4.30;3.15;;;;;;;;;;5004620;28;20046;-82
2021/06/17 06:52:00;;;;;;;2.70;2.50;;;;;;;;;;5002721;28;20022;-82
2021/06/17 06:54:26;;;;;;;2.65;2.42;;;;;;;;;;5002871;28;20500;-82
2021/06/17 06:56:53;;;;;;;2.83;2.55;;;;;;;;;;5004320;28;20022;-82
2021/06/17 06:59:19;;;;;;;3.58;2.65;;;;;;;;;;5006780;28;20018;-81
2021/06/17 07:01:46;;;;;;;5.28;3.72;;;;;;;;;;5000025;28;20045;-81
2021/06/17 07:04:12;;;;;;;2.70;2.50;;;;;;;;;;4999148;28;20030;-82
2021/06/17 07:06:39;;;;;;;3.17;2.85;;;;;;;;;;4997091;28;20039;-82
2021/06/17 07:09:06;;;;;;;2.90;2.70;;;;;;;;;;4998848;28;20023;-82
2021/06/17 07:11:32;;;;;;;3.85;2.72;;;;;;;;;;4998640;28;20027;-83
2021/06/17 07:13:59;;;;;;;3.58;3.28;;;;;;;;;;4998615;28;20038;-82
2021/06/17 07:16:26;;;;;;;2.60;2.40;;;;;;;;;;4999378;28;20041;-83
2021/06/17 07:18:52;;;;;;;3.38;2.35;;;;;;;;;;4999184;28;20032;-82
2021/06/17 07:21:18;;;;;;;3.40;2.70;;;;;;;;;;4996034;28;20041;-83
2021/06/17 07:23:50;;;;;;;2.95;2.35;;;;;;;;;;4998464;28;20053;-84
2021/06/17 07:26:17;;;;;;;2.22;2.13;;;;;;;;;;4998780;28;20073;-83
2021/06/17 07:28:43;;;;;;;2.25;2.05;;;;;;;;;;5007216;28;20022;-82
2021/06/17 07:31:09;;;;;;;4.15;2.63;;;;;;;;;;4997103;28;20041;-82
2021/06/17 07:33:35;;;;;;;2.92;2.67;;;;;;;;;;4998051;28;20108;-82
2021/06/17 07:36:01;;;;;;;3.97;2.88;;;;;;;;;;4999984;28;20384;-80
2021/06/17 07:38:27;;;;;;;4.32;2.90;;;;;;;;;;4997475;28;20040;-82
2021/06/17 07:40:53;;;;;;;2.55;2.35;;;;;;;;;;4997701;28;20027;-83
2021/06/17 07:43:19;;;;;;;4.47;2.92;;;;;;;;;;4996528;28;20033;-83
2021/06/17 07:45:45;;;;;;;4.18;3.17;;;;;;;;;;4996778;28;20038;-82
2021/06/17 07:48:11;;;;;;;4.80;3.88;;;;;;;;;;4995680;28;20081;-82
2021/06/17 07:50:42;;;;;;;3.92;3.20;;;;;;;;;;4995794;28;20573;-83
2021/06/17 07:53:08;;;;;;;3.50;3.20;;;;;;;;;;4995874;28;20030;-83
2021/06/17 07:55:35;;;;;;;7.22;3.30;;;;;;;;;;5010048;28;20018;-82
2021/06/17 07:58:01;;;;;;;4.72;3.28;;;;;;;;;;5008563;28;20025;-83
2021/06/17 08:00:29;;;;;;;3.08;2.83;;;;;;;;;;4996925;28;20041;-84
2021/06/17 08:02:59;;;;;;;4.65;3.25;;;;;;;;;;4998161;28;20029;-82
2021/06/17 08:05:25;;;;;;;8.25;3.30;;;;;;;;;;4997105;28;20029;-83
2021/06/17 08:07:51;;;;;;;5.10;3.55;;;;;;;;;;4995552;28;20034;-83
2021/06/17 08:10:18;;;;;;;4.15;2.90;;;;;;;;;;4996856;28;20089;-83
2021/06/17 08:12:44;;;;;;;3.97;3.25;;;;;;;;;;4996783;28;20475;-82
2021/06/17 08:15:10;;;;;;;3.67;3.10;;;;;;;;;;4997077;28;20403;-82
2021/06/17 08:17:36;;;;;;;4.28;3.33;;;;;;;;;;4997942;28;20022;-83
2021/06/17 08:20:03;;;;;;;5.07;2.92;;;;;;;;;;4997368;28;20081;-82
2021/06/17 08:22:29;;;;;;;4.82;3.30;;;;;;;;;;4998980;28;20375;-84
2021/06/17 08:24:56;;;;;;;4.65;3.30;;;;;;;;;;5000619;28;20038;-83
2021/06/17 08:27:22;;;;;;;4.68;2.97;;;;;;;;;;4995452;28;20030;-82
2021/06/17 08:29:48;;;;;;;3.55;3.25;;;;;;;;;;4986934;28;20065;-82
2021/06/17 08:32:14;;;;;;;6.15;4.03;;;;;;;;;;4998152;28;20038;-82
2021/06/17 08:34:40;;;;;;;7.13;3.67;;;;;;;;;;4998966;28;20046;-82
2021/06/17 08:37:07;;;;;;;5.30;3.45;;;;;;;;;;4999943;28;20102;-82
2021/06/17 08:39:33;;;;;;;4.82;3.65;;;;;;;;;;5002747;28;20034;-83
2021/06/17 08:42:00;;;;;;;7.43;3.90;;;;;;;;;;5003291;28;20094;-82
2021/06/17 08:44:26;;;;;;;5.97;4.20;;;;;;;;;;5002965;28;20076;-83
2021/06/17 08:46:52;;;;;;;5.45;3.92;;;;;;;;;;5002616;28;20165;-82
2021/06/17 08:49:21;;;;;;;5.78;3.55;;;;;;;;;;5002686;28;20105;-82
2021/06/17 08:51:47;;;;;;;4.47;3.58;;;;;;;;;;5004711;28;20022;-81
2021/06/17 08:54:19;;;;;;;5.13;3.83;;;;;;;;;;5004826;28;20014;-82
2021/06/17 08:56:46;;;;;;;3.75;3.42;;;;;;;;;;5004204;28;20065;-84
2021/06/17 08:59:14;;;;;;;5.60;3.45;;;;;;;;;;5022807;28;20405;-83
2021/06/17 09:01:40;;;;;;;4.22;3.00;;;;;;;;;;5005857;28;20052;-81
2021/06/17 09:04:19;;;;;;;5.53;3.83;;;;;;;;;;5023377;28;20030;-82
2021/06/17 09:07:04;;;;;;;4.63;3.40;;;;;;;;;;5004014;28;20025;-81
2021/06/17 09:09:31;;;;;;;5.68;3.97;;;;;;;;;;5003176;28;20031;-83
2021/06/17 09:11:57;;;;;;;5.35;3.17;;;;;;;;;;5003504;28;20115;-83
2021/06/17 09:14:26;;;;;;;4.47;3.53;;;;;;;;;;5006198;28;20026;-82
2021/06/17 09:17:07;;;;;;;3.85;3.28;;;;;;;;;;5002875;28;20057;-82
2021/06/17 09:19:34;;;;;;;6.90;4.13;;;;;;;;;;5003615;28;20029;-83
2021/06/17 09:22:00;;;;;;;5.20;3.42;;;;;;;;;;5003238;28;20022;-82
2021/06/17 09:24:34;;;;;;;4.32;3.83;;;;;;;;;;5004331;28;20513;-83
2021/06/17 09:27:22;;;;;;;6.25;3.85;;;;;;;;;;5003620;28;20105;-82
2021/06/17 09:29:48;;;;;;;5.28;3.45;;;;;;;;;;5011262;28;20046;-84
2021/06/17 09:32:28;;;;;;;3.83;3.53;;;;;;;;;;5001991;28;20098;-82
2021/06/17 09:34:54;;;;;;;6.45;3.70;;;;;;;;;;5002159;28;20023;-82
2021/06/17 09:37:31;;;;;;;3.80;3.40;;;;;;;;;;5002636;28;20476;-82
2021/06/17 09:39:57;;;;;;;5.18;3.28;;;;;;;;;;5002441;28;20030;-82
2021/06/17 09:42:31;;;;;;;6.38;4.03;;;;;;;;;;5002540;28;20117;-82
2021/06/17 09:45:00;;;;;;;7.85;3.97;;;;;;;;;;5001917;28;20042;-82
2021/06/17 09:47:32;;;;;;;7.75;3.80;;;;;;;;;;5001568;28;20030;-83
2021/06/17 09:50:00;;;;;;;8.68;4.25;;;;;;;;;;5002164;28;20037;-84
2021/06/17 09:52:40;;;;;;;6.38;3.65;;;;;;;;;;5002846;28;20057;-83
2021/06/17 09:55:06;;;;;;;6.18;4.10;;;;;;;;;;5006048;28;20049;-81
2021/06/17 09:57:36;;;;;;;3.95;3.65;;;;;;;;;;5008856;28;20030;-81
2021/06/17 10:00:09;;;;;;;5.15;3.88;;;;;;;;;;5000779;28;20026;-82
2021/06/17 10:02:38;;;;;;;4.15;3.75;;;;;;;;;;5004710;28;20085;-81
2021/06/17 10:05:23;;;;;;;4.85;4.13;;;;;;;;;;5004524;28;20086;-82
2021/06/17 10:07:50;;;;;;;5.95;3.88;;;;;;;;;;5004562;28;20034;-82
2021/06/17 10:10:17;;;;;;;4.88;4.30;;;;;;;;;;5006317;28;20086;-83
2021/06/17 10:12:44;;;;;;;4.22;3.67;;;;;;;;;;5006647;28;20034;-83
2021/06/17 10:15:11;;;;;;;6.35;3.47;;;;;;;;;;5006322;28;20446;-83
2021/06/17 10:17:37;;;;;;;6.68;3.63;;;;;;;;;;5005115;28;20049;-83
2021/06/17 10:20:04;;;;;;;5.57;4.00;;;;;;;;;;5003683;28;20046;-82
2021/06/17 10:22:37;;;;;;;3.83;3.33;;;;;;;;;;4998647;28;20022;-82
2021/06/17 10:25:04;;;;;;;4.07;3.67;;;;;;;;;;5004056;28;20026;-83
2021/06/17 10:27:42;;;;;;;7.03;3.78;;;;;;;;;;4984680;28;20038;-82
2021/06/17 10:30:09;;;;;;;4.78;3.50;;;;;;;;;;5005387;28;20479;-81
2021/06/17 10:32:37;;;;;;;5.05;3.42;;;;;;;;;;5013188;28;20034;-82
2021/06/17 10:35:07;;;;;;;5.30;3.35;;;;;;;;;;5004720;28;20067;-83
2021/06/17 10:37:34;;;;;;;4.18;2.92;;;;;;;;;;5005476;28;20045;-82
2021/06/17 10:40:16;;;;;;;4.70;3.20;;;;;;;;;;5009788;28;20030;-82
2021/06/17 10:42:46;;;;;;;3.47;2.90;;;;;;;;;;5003607;28;20026;-82
2021/06/17 10:45:31;;;;;;;4.05;2.80;;;;;;;;;;5004630;28;20085;-81
2021/06/17 10:47:59;;;;;;;3.70;3.10;;;;;;;;;;5004991;28;20073;-82
2021/06/17 10:50:32;;;;;;;6.47;3.50;;;;;;;;;;5006265;28;20032;-81
2021/06/17 10:53:17;;;;;;;4.47;2.92;;;;;;;;;;5006411;28;20015;-81
2021/06/17 10:55:52;;;;;;;4.63;3.53;;;;;;;;;;5005253;28;20022;-83
2021/06/17 10:58:38;;;;;;;3.80;2.75;;;;;;;;;;5007239;28;20041;-82
2021/06/17 11:01:21;;;;;;;3.90;2.78;;;;;;;;;;5019770;28;20022;-83
2021/06/17 11:03:58;;;;;;;3.58;2.45;;;;;;;;;;5005481;28;20022;-83
2021/06/17 11:06:24;;;;;;;2.47;2.28;;;;;;;;;;5004173;28;20411;-83
2021/06/17 11:08:50;;;;;;;2.17;2.03;;;;;;;;;;5003738;28;20022;-82
2021/06/17 11:11:29;;;;;;;3.25;2.78;;;;;;;;;;5003236;28;20068;-82
2021/06/17 11:13:56;;;;;;;3.90;2.42;;;;;;;;;;5001911;28;20030;-83
2021/06/17 11:16:22;;;;;;;3.13;2.17;;;;;;;;;;5004491;28;20377;-83
2021/06/17 11:19:01;;;;;;;2.88;2.55;;;;;;;;;;5003764;28;20086;-82
2021/06/17 11:21:27;;;;;;;2.33;1.88;;;;;;;;;;5004655;28;20027;-83
2021/06/17 11:24:00;;;;;;;2.55;2.35;;;;;;;;;;5003592;28;20026;-82
2021/06/17 11:26:39;;;;;;;2.65;2.08;;;;;;;;;;5003755;28;20041;-83
2021/06/17 11:29:05;;;;;;;3.13;2.10;;;;;;;;;;5008302;28;20471;-84
2021/06/17 11:31:48;;;;;;;3.75;2.55;;;;;;;;;;5001969;28;20079;-82
2021/06/17 11:34:15;;;;;;;2.58;1.80;;;;;;;;;;5003955;28;20034;-82
2021/06/17 11:36:48;;;;;;;2.25;2.05;;;;;;;;;;5003612;28;20027;-83
2021/06/17 11:39:20;;;;;;;4.55;2.33;;;;;;;;;;5003397;28;20113;-82
2021/06/17 11:41:46;;;;;;;1.85;1.50;;;;;;;;;;5003806;28;20035;-82
2021/06/17 11:44:17;;;;;;;4.78;1.42;;;;;;;;;;5002546;28;20050;-80
2021/06/17 11:46:46;;;;;;;1.60;1.40;;;;;;;;;;5003335;28;20045;-82
2021/06/17 11:49:12;;;;;;;2.38;1.38;;;;;;;;;;5002825;28;20476;-81
2021/06/17 11:51:48;;;;;;;1.67;1.35;;;;;;;;;;4995277;28;20478;-81
2021/06/17 11:54:21;;;;;;;1.90;1.58;;;;;;;;;;5002744;28;20065;-82
2021/06/17 11:56:57;;;;;;;2.15;1.95;;;;;;;;;;4996985;28;20027;-82
2021/06/17 11:59:32;;;;;;;4.47;2.35;;;;;;;;;;5012389;28;20082;-84
2021/06/17 12:02:09;;;;;;;2.13;2.03;;;;;;;;;;4998483;28;20046;-81
2021/06/17 12:04:55;;;;;;;3.85;2.63;;;;;;;;;;4993938;28;20035;-83
2021/06/17 12:07:26;;;;;;;2.85;2.65;;;;;;;;;;5006185;28;20029;-82
2021/06/17 12:09:53;;;;;;;4.50;3.42;;;;;;;;;;5005264;28;20026;-83
2021/06/17 12:12:22;;;;;;;5.10;2.60;;;;;;;;;;5005235;28;20454;-82
2021/06/17 12:14:48;;;;;;;4.63;2.78;;;;;;;;;;5001209;28;20022;-81
2021/06/17 12:17:30;;;;;;;4.82;3.08;;;;;;;;;;4983012;28;20467;-82
2021/06/17 12:19:57;;;;;;;2.97;2.72;;;;;;;;;;5004247;28;20105;-82
2021/06/17 12:22:23;;;;;;;2.83;2.40;;;;;;;;;;4987734;28;20065;-83
2021/06/17 12:24:50;;;;;;;2.58;2.35;;;;;;;;;;5002968;28;20030;-82
2021/06/17 12:27:18;;;;;;;4.10;2.67;;;;;;;;;;5004298;28;20430;-82
2021/06/17 12:29:45;;;;;;;6.72;3.25;;;;;;;;;;5020602;28;20028;-82
2021/06/17 12:32:11;;;;;;;4.15;2.65;;;;;;;;;;5014163;28;20020;-82
2021/06/17 12:34:44;;;;;;;2.88;2.40;;;;;;;;;;5011663;28;20031;-81
2021/06/17 12:37:11;;;;;;;3.00;2.42;;;;;;;;;;4998801;28;20038;-81
2021/06/17 12:39:38;;;;;;;5.07;2.58;;;;;;;;;;4999807;28;20018;-82
2021/06/17 12:42:15;;;;;;;5.18;2.70;;;;;;;;;;4981950;28;20094;-82
2021/06/17 12:44:42;;;;;;;3.58;3.22;;;;;;;;;;4983083;28;20057;-81
2021/06/17 12:47:31;;;;;;;4.60;2.78;;;;;;;;;;5002628;28;20018;-81
2021/06/17 12:52:39;;;;;;;4.90;2.80;;;;;;;;;;5000380;28;20026;-82
2021/06/17 12:55:07;;;;;;;5.03;2.80;;;;;;;;;;4984816;28;20077;-82
2021/06/17 12:57:33;;;;;;;5.90;2.15;;;;;;;;;;4987868;28;20027;-83
2021/06/17 12:59:59;;;;;;;2.70;2.40;;;;;;;;;;5007391;28;20041;-81
2021/06/17 13:02:28;;;;;;;4.45;2.50;;;;;;;;;;5003038;28;20377;-82
2021/06/17 13:05:13;;;;;;;2.40;2.20;;;;;;;;;;4985411;28;20026;-81
2021/06/17 13:07:41;;;;;;;5.13;2.42;;;;;;;;;;5002567;28;20023;-81
2021/06/17 13:10:11;;;;;;;2.88;2.38;;;;;;;;;;5003472;28;20049;-81
2021/06/17 13:12:38;;;;;;;3.08;2.40;;;;;;;;;;4986034;28;20099;-83
2021/06/17 13:15:09;;;;;;;3.05;2.28;;;;;;;;;;5001943;28;20026;-82
2021/06/17 13:17:36;;;;;;;3.05;2.63;;;;;;;;;;4985495;28;20042;-82
2021/06/17 13:20:03;;;;;;;2.47;2.28;;;;;;;;;;5001028;28;20034;-82
2021/06/17 13:22:30;;;;;;;4.40;2.28;;;;;;;;;;5002932;28;20029;-82
2021/06/17 13:25:04;;;;;;;5.15;2.45;;;;;;;;;;5003669;28;20109;-82
2021/06/17 13:27:30;;;;;;;2.33;2.13;;;;;;;;;;5003804;28;20114;-82
2021/06/17 13:29:59;;;;;;;2.42;2.17;;;;;;;;;;4988243;28;20415;-83
2021/06/17 13:32:26;;;;;;;3.90;1.92;;;;;;;;;;5003810;28;20030;-81
2021/06/17 13:34:52;;;;;;;3.53;2.40;;;;;;;;;;5003860;28;20073;-81
2021/06/17 13:37:18;;;;;;;3.25;2.42;;;;;;;;;;5003834;28;20486;-82
2021/06/17 13:39:49;;;;;;;2.22;2.03;;;;;;;;;;5007947;28;20039;-81
2021/06/17 13:42:16;;;;;;;4.50;2.23;;;;;;;;;;5003524;28;20113;-82
2021/06/17 13:44:42;;;;;;;3.83;2.50;;;;;;;;;;5005970;28;20324;-81
2021/06/17 13:47:09;;;;;;;4.07;1.92;;;;;;;;;;5006677;28;20475;-82
2021/06/17 13:49:38;;;;;;;2.88;2.08;;;;;;;;;;5007160;28;20394;-81
2021/06/17 13:52:05;;;;;;;3.53;2.38;;;;;;;;;;5038456;22;20490;-82
2021/06/17 13:54:32;;;;;;;3.58;2.03;;;;;;;;;;5029086;28;20032;-83
2021/06/17 13:56:58;;;;;;;4.13;2.13;;;;;;;;;;5036509;28;20022;-83
2021/06/17 13:59:24;;;;;;;2.40;2.20;;;;;;;;;;5016904;28;20300;-81
2021/06/17 14:01:50;;;;;;;2.40;2.05;;;;;;;;;;5011786;28;20038;-82
2021/06/17 14:04:17;;;;;;;2.10;1.90;;;;;;;;;;5022668;28;20056;-81
2021/06/17 14:06:44;;;;;;;3.67;2.60;;;;;;;;;;5000174;28;20025;-81
2021/06/17 14:09:10;;;;;;;2.97;2.03;;;;;;;;;;5016880;28;20037;-82
2021/06/17 14:11:36;;;;;;;2.40;1.98;;;;;;;;;;5027712;28;20098;-82
2021/06/17 14:14:02;;;;;;;6.13;2.40;;;;;;;;;;5017351;28;20394;-82
2021/06/17 14:16:28;;;;;;;3.78;2.10;;;;;;;;;;4990170;28;20022;-82
2021/06/17 14:18:54;;;;;;;3.83;2.38;;;;;;;;;;4998198;28;20054;-82
2021/06/17 14:21:21;;;;;;;3.58;2.60;;;;;;;;;;5007526;28;20027;-82
2021/06/17 14:23:47;;;;;;;2.55;2.35;;;;;;;;;;5006609;28;20340;-82
2021/06/17 14:26:13;;;;;;;2.53;2.33;;;;;;;;;;5013153;28;20053;-82
2021/06/17 14:28:39;;;;;;;2.40;2.20;;;;;;;;;;5029381;28;20022;-82
2021/06/17 14:31:05;;;;;;;3.00;2.08;;;;;;;;;;5005775;28;20414;-83
2021/06/17 14:33:31;;;;;;;2.85;2.25;;;;;;;;;;5023992;28;20040;-82
2021/06/17 14:35:57;;;;;;;1.88;1.77;;;;;;;;;;4993163;28;20038;-83
2021/06/17 14:38:23;;;;;;;1.65;1.50;;;;;;;;;;5007797;28;20448;-82
2021/06/17 14:40:49;;;;;;;3.33;1.90;;;;;;;;;;5019560;28;20034;-81
2021/06/17 14:43:15;;;;;;;4.60;2.28;;;;;;;;;;5026112;28;20029;-82
2021/06/17 14:45:41;;;;;;;2.00;1.90;;;;;;;;;;5026462;28;20430;-81
2021/06/17 14:48:08;;;;;;;2.38;2.17;;;;;;;;;;5019155;28;20114;-79
2021/06/17 14:50:34;;;;;;;3.30;1.90;;;;;;;;;;5018673;28;20022;-83
2021/06/17 14:53:00;;;;;;;5.53;2.17;;;;;;;;;;5006072;28;20026;-85
2021/06/17 14:55:26;;;;;;;2.47;2.08;;;;;;;;;;5025469;28;20137;-83